createdAt,value
2022-09-09T00:01:44.788Z,19.09
2022-09-09T00:03:57.158Z,19.13
2022-09-09T00:06:08.414Z,19.06
2022-09-09T00:08:20.511Z,19.01
2022-09-09T00:10:29.969Z,18.92
2022-09-09T00:12:40.438Z,18.84
2022-09-09T00:14:52.898Z,18.96
2022-09-09T00:17:00.994Z,19.02
2022-09-09T00:19:08.368Z,18.99
2022-09-09T00:21:17.275Z,18.89
2022-09-09T00:23:27.320Z,18.74
2022-09-09T00:25:37.831Z,18.62
2022-09-09T00:27:46.595Z,18.58
2022-09-09T00:29:55.883Z,18.40
2022-09-09T00:32:11.037Z,18.39
2022-09-09T00:34:17.387Z,18.46
2022-09-09T00:36:23.879Z,18.48
2022-09-09T00:38:34.911Z,18.57
2022-09-09T00:40:46.945Z,18.65
2022-09-09T00:43:01.914Z,18.71
2022-09-09T00:45:21.021Z,18.81
2022-09-09T00:47:45.570Z,18.90
2022-09-09T00:50:02.390Z,18.90
2022-09-09T00:52:20.366Z,18.85
2022-09-09T00:54:38.713Z,18.78
2022-09-09T00:56:48.080Z,18.70
2022-09-09T00:58:59.731Z,18.60
2022-09-09T01:01:08.593Z,18.71
2022-09-09T01:03:35.309Z,18.85
2022-09-09T01:05:47.386Z,18.92
2022-09-09T01:07:55.109Z,18.91
2022-09-09T01:10:06.266Z,18.99
2022-09-09T01:12:16.399Z,19.06
2022-09-09T01:14:34.468Z,19.03
2022-09-09T01:16:41.310Z,19.17
2022-09-09T01:18:51.315Z,19.23
2022-09-09T01:21:05.106Z,19.28
2022-09-09T01:23:28.210Z,19.26
2022-09-09T01:26:13.961Z,19.17
2022-09-09T01:28:23.159Z,19.17
2022-09-09T01:30:29.891Z,19.18
2022-09-09T01:32:43.066Z,19.14
2022-09-09T01:34:47.472Z,19.10
2022-09-09T01:36:57.504Z,18.99
2022-09-09T01:39:01.802Z,18.96
2022-09-09T01:41:05.769Z,18.67
2022-09-09T01:43:31.981Z,18.47
2022-09-09T01:45:35.885Z,18.34
2022-09-09T01:47:40.173Z,18.21
2022-09-09T01:49:56.037Z,18.12
2022-09-09T01:52:03.642Z,18.18
2022-09-09T01:54:12.618Z,18.22
2022-09-09T01:56:27.097Z,18.15
2022-09-09T01:58:39.796Z,18.16
2022-09-09T02:00:50.250Z,18.12
2022-09-09T02:03:02.858Z,18.09
2022-09-09T02:05:32.986Z,18.04
2022-09-09T02:07:41.978Z,17.98
2022-09-09T02:10:03.974Z,17.84
2022-09-09T02:12:13.879Z,17.95
2022-09-09T02:14:30.141Z,18.02
2022-09-09T02:16:40.347Z,18.02
2022-09-09T02:18:50.251Z,18.10
2022-09-09T02:20:58.682Z,18.11
2022-09-09T02:23:03.413Z,17.91
2022-09-09T02:25:10.761Z,17.83
2022-09-09T02:27:17.319Z,17.82
2022-09-09T02:29:27.523Z,18.05
2022-09-09T02:31:31.187Z,18.07
2022-09-09T02:33:44.289Z,18.18
2022-09-09T02:35:49.000Z,18.13
2022-09-09T02:38:00.862Z,18.04
2022-09-09T02:40:04.959Z,18.02
2022-09-09T02:42:10.375Z,18.03
2022-09-09T02:44:17.931Z,17.91
2022-09-09T02:46:36.368Z,17.90
2022-09-09T02:48:50.756Z,17.92
2022-09-09T02:51:02.901Z,17.92
2022-09-09T02:53:17.718Z,18.15
2022-09-09T02:55:31.198Z,18.05
2022-09-09T02:57:37.074Z,18.08
2022-09-09T02:59:42.725Z,17.95
2022-09-09T03:01:47.928Z,18.00
2022-09-09T03:03:51.535Z,18.08
2022-09-09T03:05:55.421Z,18.09
2022-09-09T03:07:58.748Z,18.14
2022-09-09T03:10:02.447Z,18.16
2022-09-09T03:12:07.618Z,18.18
2022-09-09T03:14:12.276Z,18.17
2022-09-09T03:16:16.016Z,18.15
2022-09-09T03:18:24.515Z,18.18
2022-09-09T03:20:31.972Z,18.14
2022-09-09T03:22:36.028Z,18.08
2022-09-09T03:24:40.009Z,18.03
2022-09-09T03:26:45.617Z,18.09
2022-09-09T03:28:52.656Z,18.12
2022-09-09T03:31:00.770Z,17.95
2022-09-09T03:33:04.848Z,18.07
2022-09-09T03:35:11.833Z,18.09
2022-09-09T03:37:15.200Z,18.09
2022-09-09T03:39:18.546Z,18.02
2022-09-09T03:41:24.892Z,18.07
2022-09-09T03:43:30.086Z,18.12
2022-09-09T03:45:33.920Z,18.05
2022-09-09T03:47:37.474Z,18.01
2022-09-09T03:49:42.939Z,18.01
2022-09-09T03:51:47.611Z,18.06
2022-09-09T03:53:51.717Z,18.02
2022-09-09T03:55:56.956Z,18.04
2022-09-09T03:58:03.097Z,18.10
2022-09-09T04:00:08.565Z,18.02
2022-09-09T04:02:22.530Z,17.97
2022-09-09T04:04:26.970Z,18.05
2022-09-09T04:06:31.332Z,18.06
2022-09-09T04:08:37.215Z,18.06
2022-09-09T04:10:41.286Z,17.72
2022-09-09T04:12:47.794Z,18.07
2022-09-09T04:14:58.087Z,18.10
2022-09-09T04:17:07.244Z,18.04
2022-09-09T04:19:13.366Z,17.99
2022-09-09T04:21:18.496Z,17.95
2022-09-09T04:23:22.633Z,17.93
2022-09-09T04:25:27.679Z,18.03
2022-09-09T04:27:31.126Z,18.02
2022-09-09T04:29:35.250Z,18.08
2022-09-09T04:31:42.836Z,18.12
2022-09-09T04:33:47.490Z,18.15
2022-09-09T04:35:54.658Z,18.12
2022-09-09T04:37:59.743Z,18.06
2022-09-09T04:40:04.990Z,18.03
2022-09-09T04:42:10.534Z,17.97
2022-09-09T04:44:13.852Z,18.01
2022-09-09T04:46:18.141Z,17.48
2022-09-09T04:48:22.808Z,18.09
2022-09-09T04:50:27.096Z,18.08
2022-09-09T04:52:36.355Z,18.10
2022-09-09T04:54:39.921Z,18.12
2022-09-09T04:56:44.255Z,18.02
2022-09-09T04:58:49.814Z,17.95
2022-09-09T05:00:54.366Z,17.94
2022-09-09T05:02:58.225Z,17.93
2022-09-09T05:05:02.070Z,17.92
2022-09-09T05:07:05.528Z,17.99
2022-09-09T05:09:08.955Z,18.01
2022-09-09T05:11:18.127Z,18.00
2022-09-09T05:13:21.840Z,17.93
2022-09-09T05:15:26.527Z,17.93
2022-09-09T05:17:30.020Z,17.92
2022-09-09T05:19:33.360Z,17.89
2022-09-09T05:21:36.691Z,17.88
2022-09-09T05:23:40.668Z,17.92
2022-09-09T05:25:44.522Z,17.91
2022-09-09T05:27:47.867Z,17.91
2022-09-09T05:29:51.835Z,17.80
2022-09-09T05:31:56.613Z,17.86
2022-09-09T05:34:00.139Z,17.85
2022-09-09T05:36:05.930Z,17.86
2022-09-09T05:38:09.357Z,17.88
2022-09-09T05:40:13.502Z,17.88
2022-09-09T05:42:17.635Z,17.84
2022-09-09T05:44:21.598Z,17.84
2022-09-09T05:46:26.195Z,17.78
2022-09-09T05:48:33.483Z,17.76
2022-09-09T05:50:36.851Z,17.76
2022-09-09T05:52:40.258Z,17.69
2022-09-09T05:54:44.884Z,17.62
2022-09-09T05:56:51.868Z,17.62
2022-09-09T05:58:57.638Z,17.51
2022-09-09T06:01:06.284Z,17.53
2022-09-09T06:03:12.496Z,17.52
2022-09-09T06:05:17.895Z,17.53
2022-09-09T06:07:21.361Z,17.53
2022-09-09T06:09:24.992Z,17.49
2022-09-09T06:11:31.924Z,17.54
2022-09-09T06:13:38.189Z,17.55
2022-09-09T06:15:52.137Z,17.60
2022-09-09T06:17:57.221Z,17.54
2022-09-09T06:20:00.651Z,17.56
2022-09-09T06:22:06.331Z,17.68
2022-09-09T06:24:14.768Z,17.62
2022-09-09T06:26:20.757Z,17.60
2022-09-09T06:28:26.077Z,17.64
2022-09-09T06:30:31.039Z,17.66
2022-09-09T06:32:35.533Z,17.63
2022-09-09T06:34:39.014Z,17.70
2022-09-09T06:36:42.563Z,17.67
2022-09-09T06:38:47.832Z,17.75
2022-09-09T06:40:55.835Z,17.77
2022-09-09T06:43:02.169Z,17.79
2022-09-09T06:45:13.062Z,17.75
2022-09-09T06:47:25.681Z,17.74
2022-09-09T06:49:29.991Z,17.89
2022-09-09T06:51:36.367Z,17.88
2022-09-09T06:53:43.070Z,17.96
2022-09-09T06:55:49.379Z,18.01
2022-09-09T06:57:53.241Z,18.11
2022-09-09T07:00:00.249Z,18.18
2022-09-09T07:02:04.130Z,18.17
2022-09-09T07:04:09.869Z,18.19
2022-09-09T07:06:17.956Z,18.35
2022-09-09T07:08:22.875Z,18.41
2022-09-09T07:10:26.676Z,18.41
2022-09-09T07:12:31.454Z,18.36
2022-09-09T07:14:38.538Z,18.37
2022-09-09T07:16:45.458Z,18.47
2022-09-09T07:18:51.557Z,18.65
2022-09-09T07:20:57.112Z,18.62
2022-09-09T07:23:01.740Z,18.48
2022-09-09T07:25:07.011Z,18.49
2022-09-09T07:27:10.704Z,18.72
2022-09-09T07:29:20.440Z,18.82
2022-09-09T07:31:27.115Z,18.77
2022-09-09T07:33:32.322Z,18.66
2022-09-09T07:35:36.398Z,18.69
2022-09-09T07:37:39.807Z,18.66
2022-09-09T07:39:43.288Z,18.75
2022-09-09T07:41:48.599Z,18.88
2022-09-09T07:43:55.779Z,18.98
2022-09-09T07:46:03.045Z,18.88
2022-09-09T07:48:07.577Z,18.87
2022-09-09T07:50:12.653Z,18.86
2022-09-09T07:52:18.280Z,18.79
2022-09-09T07:54:27.151Z,18.72
2022-09-09T07:56:33.526Z,19.05
2022-09-09T07:58:38.716Z,18.96
2022-09-09T08:00:44.610Z,18.92
2022-09-09T08:02:49.536Z,19.00
2022-09-09T08:04:53.591Z,18.92
2022-09-09T08:07:00.848Z,18.98
2022-09-09T08:09:06.394Z,19.03
2022-09-09T08:11:12.872Z,19.07
2022-09-09T08:13:18.186Z,18.97
2022-09-09T08:15:22.898Z,18.80
2022-09-09T08:17:26.368Z,18.78
2022-09-09T08:19:31.958Z,18.85
2022-09-09T08:21:39.932Z,18.90
2022-09-09T08:23:44.502Z,18.96
2022-09-09T08:25:49.838Z,18.90
2022-09-09T08:27:55.169Z,18.96
2022-09-09T08:29:58.926Z,19.02
2022-09-09T08:32:03.258Z,18.94
2022-09-09T08:34:08.225Z,18.95
2022-09-09T08:36:16.222Z,18.79
2022-09-09T08:38:19.731Z,18.91
2022-09-09T08:40:31.191Z,18.99
2022-09-09T08:42:43.257Z,19.09
2022-09-09T08:45:08.054Z,19.21
2022-09-09T08:47:23.617Z,19.18
2022-09-09T08:49:54.748Z,19.13
2022-09-09T08:51:59.865Z,19.10
2022-09-09T08:54:05.316Z,19.08
2022-09-09T08:56:16.212Z,18.83
2022-09-09T08:58:25.814Z,19.12
2022-09-09T09:00:39.228Z,19.18
2022-09-09T09:02:58.370Z,19.22
2022-09-09T09:05:15.934Z,19.34
2022-09-09T09:07:34.754Z,19.39
2022-09-09T09:09:46.240Z,19.47
2022-09-09T09:11:52.608Z,19.40
2022-09-09T09:14:00.026Z,19.42
2022-09-09T09:16:15.558Z,19.32
2022-09-09T09:18:19.568Z,19.52
2022-09-09T09:20:34.224Z,19.58
2022-09-09T09:22:48.858Z,19.56
2022-09-09T09:24:56.513Z,19.68
2022-09-09T09:27:09.784Z,19.76
2022-09-09T09:29:16.352Z,19.69
2022-09-09T09:31:22.947Z,19.65
2022-09-09T09:33:32.532Z,19.59
2022-09-09T09:35:40.485Z,19.65
2022-09-09T09:40:13.851Z,19.70
2022-09-09T09:42:21.702Z,19.57
2022-09-09T09:44:30.381Z,19.59
2022-09-09T09:46:39.786Z,19.59
2022-09-09T09:48:58.889Z,19.65
2022-09-09T09:51:11.423Z,19.57
2022-09-09T09:53:24.728Z,19.65
2022-09-09T09:55:32.802Z,19.58
2022-09-09T09:57:37.779Z,19.45
2022-09-09T09:59:45.928Z,19.42
2022-09-09T10:01:55.213Z,19.45
2022-09-09T10:04:02.590Z,19.60
2022-09-09T10:06:08.298Z,19.69
2022-09-09T10:08:15.184Z,19.67
2022-09-09T10:10:27.702Z,19.73
2022-09-09T10:12:46.045Z,19.96
2022-09-09T10:15:03.708Z,19.98
2022-09-09T10:17:19.157Z,19.99
2022-09-09T10:19:31.750Z,20.01
2022-09-09T10:22:04.332Z,20.16
2022-09-09T10:24:28.380Z,20.18
2022-09-09T10:26:42.171Z,20.17
2022-09-09T10:29:02.534Z,20.30
2022-09-09T10:31:18.687Z,20.45
2022-09-09T10:33:34.616Z,20.19
2022-09-09T10:35:47.119Z,20.10
2022-09-09T10:38:12.709Z,20.18
2022-09-09T10:40:31.456Z,20.35
2022-09-09T10:42:37.372Z,20.42
2022-09-09T10:44:55.883Z,20.37
2022-09-09T10:47:27.900Z,20.31
2022-09-09T10:49:50.640Z,20.21
2022-09-09T10:52:01.169Z,20.20
2022-09-09T10:54:16.749Z,20.02
2022-09-09T10:56:24.615Z,20.27
2022-09-09T10:58:35.325Z,20.52
2022-09-09T11:00:42.578Z,20.99
2022-09-09T11:02:45.925Z,21.23
2022-09-09T11:04:56.895Z,21.13
2022-09-09T11:07:08.526Z,20.85
2022-09-09T11:09:19.573Z,20.82
2022-09-09T11:11:31.241Z,20.65
2022-09-09T11:13:42.192Z,20.81
2022-09-09T11:15:48.831Z,20.78
2022-09-09T11:17:56.058Z,20.58
2022-09-09T11:19:59.601Z,20.59
2022-09-09T11:22:05.834Z,20.39
2022-09-09T11:24:20.146Z,20.51
2022-09-09T11:26:33.535Z,20.53
2022-09-09T11:29:02.806Z,20.39
2022-09-09T11:31:32.122Z,20.35
2022-09-09T11:34:00.182Z,20.11
2022-09-09T11:36:33.342Z,20.03
2022-09-09T11:38:43.674Z,20.00
2022-09-09T11:40:48.529Z,20.06
2022-09-09T11:43:05.406Z,20.12
2022-09-09T11:45:24.718Z,20.29
2022-09-09T11:47:31.313Z,20.35
2022-09-09T11:49:44.341Z,20.48
2022-09-09T11:51:47.679Z,20.53
2022-09-09T11:53:53.572Z,20.45
2022-09-09T11:56:12.191Z,20.36
2022-09-09T11:58:20.358Z,20.25
2022-09-09T12:00:38.014Z,20.25
2022-09-09T12:02:51.627Z,20.10
2022-09-09T12:05:02.659Z,20.14
2022-09-09T12:07:23.763Z,20.32
2022-09-09T12:09:33.782Z,20.35
2022-09-09T12:11:38.153Z,20.26
2022-09-09T12:13:42.825Z,20.08
2022-09-09T12:15:51.782Z,20.12
2022-09-09T12:18:02.129Z,20.12
2022-09-09T12:20:15.538Z,20.13
2022-09-09T12:22:28.315Z,20.11
2022-09-09T12:24:39.439Z,20.11
2022-09-09T12:26:49.931Z,20.09
2022-09-09T12:29:04.321Z,20.18
2022-09-09T12:31:18.852Z,20.24
2022-09-09T12:33:22.822Z,20.52
2022-09-09T12:35:30.846Z,20.52
2022-09-09T12:37:37.787Z,20.57
2022-09-09T12:39:47.405Z,20.43
2022-09-09T12:41:58.311Z,20.61
2022-09-09T12:44:06.847Z,20.62
2022-09-09T12:46:23.095Z,20.65
2022-09-09T12:48:37.662Z,20.63
2022-09-09T12:50:48.115Z,20.43
2022-09-09T12:52:54.308Z,20.31
2022-09-09T12:54:59.087Z,20.17
2022-09-09T12:57:02.527Z,19.82
2022-09-09T12:59:05.962Z,19.29
2022-09-09T13:01:23.771Z,18.97
2022-09-09T13:03:28.524Z,19.08
2022-09-09T13:05:37.889Z,19.12
2022-09-09T13:07:41.252Z,19.30
2022-09-09T13:09:45.464Z,19.68
2022-09-09T13:11:52.403Z,19.84
2022-09-09T13:13:58.087Z,19.61
2022-09-09T13:16:03.415Z,19.75
2022-09-09T13:18:13.577Z,19.91
2022-09-09T13:20:19.547Z,20.02
2022-09-09T13:22:28.610Z,20.03
2022-09-09T13:24:34.508Z,20.22
2022-09-09T13:26:39.539Z,20.07
2022-09-09T13:28:42.793Z,20.11
2022-09-09T13:31:03.961Z,20.03
2022-09-09T13:33:24.134Z,20.06
2022-09-09T13:35:27.642Z,20.13
2022-09-09T13:37:35.679Z,20.23
2022-09-09T13:39:39.890Z,20.31
2022-09-09T13:41:45.848Z,20.76
2022-09-09T13:43:50.188Z,21.59
2022-09-09T13:45:58.971Z,21.91
2022-09-09T13:48:12.957Z,21.57
2022-09-09T13:50:24.074Z,21.32
2022-09-09T13:52:30.158Z,21.05
2022-09-09T13:54:33.752Z,21.06
2022-09-09T13:56:38.128Z,20.86
2022-09-09T13:58:41.515Z,20.83
2022-09-09T14:00:45.730Z,20.88
2022-09-09T14:02:49.175Z,20.78
2022-09-09T14:04:56.238Z,20.72
2022-09-09T14:07:00.480Z,20.71
2022-09-09T14:09:03.945Z,20.77
2022-09-09T14:11:07.455Z,20.77
2022-09-09T14:13:10.748Z,20.48
2022-09-09T14:15:15.397Z,20.46
2022-09-09T14:17:18.904Z,20.44
2022-09-09T14:19:22.623Z,20.24
2022-09-09T14:21:28.147Z,20.38
2022-09-09T14:23:33.342Z,20.23
2022-09-09T14:25:37.279Z,20.12
2022-09-09T14:27:40.681Z,19.93
2022-09-09T14:29:44.529Z,19.89
2022-09-09T14:31:47.915Z,19.58
2022-09-09T14:33:51.988Z,19.10
2022-09-09T14:35:58.331Z,18.66
2022-09-09T14:38:03.374Z,18.47
2022-09-09T14:40:08.447Z,18.32
2022-09-09T14:42:12.829Z,18.12
2022-09-09T14:44:16.969Z,18.09
2022-09-09T14:46:21.878Z,18.27
2022-09-09T14:48:25.269Z,18.21
2022-09-09T14:50:28.693Z,18.25
2022-09-09T14:52:32.381Z,18.19
2022-09-09T14:54:37.259Z,17.96
2022-09-09T14:56:40.978Z,17.85
2022-09-09T14:58:44.756Z,17.75
2022-09-09T15:00:48.059Z,17.86
2022-09-09T15:02:54.273Z,17.96
2022-09-09T15:04:58.961Z,18.10
2022-09-09T15:07:02.654Z,18.15
2022-09-09T15:09:06.855Z,18.28
2022-09-09T15:11:13.047Z,18.19
2022-09-09T15:13:17.871Z,18.32
2022-09-09T15:15:21.692Z,18.39
2022-09-09T15:17:28.113Z,18.67
2022-09-09T15:19:31.430Z,18.81
2022-09-09T15:21:36.522Z,18.78
2022-09-09T15:23:40.266Z,18.77
2022-09-09T15:25:52.897Z,18.90
2022-09-09T15:27:57.878Z,19.05
2022-09-09T15:30:01.822Z,19.05
2022-09-09T15:32:05.409Z,18.97
2022-09-09T15:34:09.841Z,19.08
2022-09-09T15:36:18.364Z,19.15
2022-09-09T15:38:21.746Z,19.18
2022-09-09T15:40:25.265Z,19.15
2022-09-09T15:42:28.752Z,19.26
2022-09-09T15:44:40.699Z,19.61
2022-09-09T15:46:45.407Z,19.81
2022-09-09T15:48:52.318Z,19.83
2022-09-09T15:51:10.969Z,19.70
2022-09-09T15:53:27.672Z,19.53
2022-09-09T15:55:30.999Z,19.48
2022-09-09T15:57:34.333Z,19.53
2022-09-09T15:59:39.024Z,19.65
2022-09-09T16:01:43.197Z,19.64
2022-09-09T16:03:48.085Z,19.88
2022-09-09T16:05:53.127Z,19.72
2022-09-09T16:07:56.510Z,19.50
2022-09-09T16:09:59.813Z,19.36
2022-09-09T16:12:07.277Z,19.31
2022-09-09T16:14:11.983Z,19.33
2022-09-09T16:16:17.944Z,19.25
2022-09-09T16:18:21.569Z,19.05
2022-09-09T16:20:26.421Z,18.83
2022-09-09T16:22:29.780Z,18.81
2022-09-09T16:24:33.099Z,18.89
2022-09-09T16:26:38.591Z,18.77
2022-09-09T16:28:42.584Z,18.77
2022-09-09T16:30:45.950Z,18.65
2022-09-09T16:32:51.472Z,18.72
2022-09-09T16:34:54.816Z,18.66
2022-09-09T16:36:58.159Z,18.52
2022-09-09T16:39:03.253Z,18.66
2022-09-09T16:41:08.313Z,18.55
2022-09-09T16:43:13.336Z,18.45
2022-09-09T16:45:16.805Z,18.41
2022-09-09T16:47:20.345Z,18.61
2022-09-09T16:49:25.071Z,18.66
2022-09-09T16:51:30.854Z,18.73
2022-09-09T16:53:34.541Z,18.73
2022-09-09T16:55:42.227Z,18.80
2022-09-09T16:57:45.588Z,18.92
2022-09-09T16:59:49.144Z,19.02
2022-09-09T17:01:53.848Z,19.02
2022-09-09T17:04:01.126Z,18.98
2022-09-09T17:06:11.343Z,18.90
2022-09-09T17:08:14.700Z,18.93
2022-09-09T17:10:18.355Z,18.95
2022-09-09T17:12:22.182Z,18.99
2022-09-09T17:14:25.811Z,18.91
2022-09-09T17:16:31.771Z,18.72
2022-09-09T17:18:35.179Z,18.73
2022-09-09T17:20:46.412Z,18.66
2022-09-09T17:22:51.927Z,18.74
2022-09-09T17:24:55.679Z,18.64
2022-09-09T17:26:59.081Z,18.64
2022-09-09T17:29:04.010Z,18.70
2022-09-09T17:31:08.845Z,18.68
2022-09-09T17:33:12.320Z,18.72
2022-09-09T17:35:15.856Z,18.80
2022-09-09T17:37:19.157Z,18.80
2022-09-09T17:39:24.254Z,18.68
2022-09-09T17:41:29.992Z,18.63
2022-09-09T17:43:33.834Z,18.52
2022-09-09T17:45:37.196Z,18.44
2022-09-09T17:47:41.071Z,18.49
2022-09-09T17:49:47.466Z,18.45
2022-09-09T17:51:50.893Z,18.49
2022-09-09T17:53:55.736Z,18.41
2022-09-09T17:56:05.957Z,18.34
2022-09-09T17:58:10.041Z,18.33
2022-09-09T18:00:14.084Z,18.31
2022-09-09T18:02:18.009Z,18.25
2022-09-09T18:04:21.493Z,18.22
2022-09-09T18:06:27.518Z,18.21
2022-09-09T18:08:34.731Z,18.10
2022-09-09T18:10:40.807Z,18.10
2022-09-09T18:12:45.817Z,18.05
2022-09-09T18:14:50.626Z,18.03
2022-09-09T18:16:54.712Z,17.83
2022-09-09T18:19:00.135Z,18.05
2022-09-09T18:21:06.466Z,18.06
2022-09-09T18:23:09.847Z,17.98
2022-09-09T18:25:13.276Z,17.98
2022-09-09T18:27:16.585Z,17.87
2022-09-09T18:29:25.112Z,17.88
2022-09-09T18:31:29.754Z,17.83
2022-09-09T18:33:35.919Z,17.92
2022-09-09T18:35:39.620Z,18.00
2022-09-09T18:37:42.964Z,17.93
2022-09-09T18:39:47.036Z,17.93
2022-09-09T18:41:52.432Z,17.89
2022-09-09T18:43:58.600Z,17.82
2022-09-09T18:46:06.771Z,17.65
2022-09-09T18:48:10.274Z,17.62
2022-09-09T18:50:13.585Z,17.56
2022-09-09T18:52:16.894Z,17.63
2022-09-09T18:54:22.647Z,17.67
2022-09-09T18:56:26.265Z,17.60
2022-09-09T18:58:30.295Z,17.56
2022-09-09T19:00:33.945Z,17.61
2022-09-09T19:02:38.902Z,17.53
2022-09-09T19:04:42.559Z,17.53
2022-09-09T19:06:48.150Z,17.55
2022-09-09T19:08:55.196Z,17.46
2022-09-09T19:11:02.468Z,17.60
2022-09-09T19:13:05.982Z,17.61
2022-09-09T19:15:10.268Z,17.53
2022-09-09T19:17:14.227Z,17.59
2022-09-09T19:19:21.041Z,17.65
2022-09-09T19:21:26.625Z,17.72
2022-09-09T19:23:31.209Z,17.71
2022-09-09T19:25:37.411Z,17.76
2022-09-09T19:27:40.753Z,17.78
2022-09-09T19:29:44.508Z,17.73
2022-09-09T19:32:18.710Z,17.59
2022-09-09T19:34:12.458Z,17.75
2022-09-09T19:36:19.107Z,17.78
2022-09-09T19:38:22.734Z,17.77
2022-09-09T19:40:26.913Z,17.72
2022-09-09T19:42:32.027Z,17.80
2022-09-09T19:44:35.359Z,17.79
2022-09-09T19:46:40.767Z,17.74
2022-09-09T19:48:44.397Z,17.67
2022-09-09T19:50:47.722Z,17.66
2022-09-09T19:52:52.834Z,17.55
2022-09-09T19:54:56.424Z,17.54
2022-09-09T19:57:01.112Z,17.64
2022-09-09T19:59:06.379Z,17.46
2022-09-09T20:01:12.278Z,17.45
2022-09-09T20:03:19.496Z,17.54
2022-09-09T20:05:23.743Z,17.56
2022-09-09T20:07:27.122Z,17.48
2022-09-09T20:09:31.832Z,17.45
2022-09-09T20:11:35.860Z,17.47
2022-09-09T20:13:40.446Z,17.24
2022-09-09T20:15:43.751Z,17.55
2022-09-09T20:17:47.098Z,17.41
2022-09-09T20:19:50.426Z,17.38
2022-09-09T20:21:53.723Z,17.46
2022-09-09T20:23:57.045Z,17.48
2022-09-09T20:26:05.190Z,17.41
2022-09-09T20:28:08.491Z,17.47
2022-09-09T20:30:13.387Z,17.46
2022-09-09T20:32:16.708Z,17.48
2022-09-09T20:34:22.929Z,17.44
2022-09-09T20:36:29.019Z,17.49
2022-09-09T20:38:34.077Z,17.44
2022-09-09T20:40:38.128Z,17.43
2022-09-09T20:42:43.299Z,17.40
2022-09-09T20:44:47.014Z,17.42
2022-09-09T20:46:54.211Z,17.33
2022-09-09T20:49:02.273Z,17.28
2022-09-09T20:51:09.765Z,17.19
2022-09-09T20:53:13.201Z,17.33
2022-09-09T20:55:16.611Z,17.28
2022-09-09T20:57:23.071Z,17.25
2022-09-09T20:59:29.642Z,17.22
2022-09-09T21:01:33.094Z,17.31
2022-09-09T21:03:37.967Z,17.31
2022-09-09T21:05:41.401Z,17.21
2022-09-09T21:07:46.244Z,17.29
2022-09-09T21:09:49.602Z,17.29
2022-09-09T21:11:53.978Z,17.38
2022-09-09T21:13:58.203Z,17.33
2022-09-09T21:16:03.928Z,17.40
2022-09-09T21:18:07.563Z,17.43
2022-09-09T21:20:11.047Z,17.33
2022-09-09T21:22:14.367Z,17.39
2022-09-09T21:24:17.913Z,17.36
2022-09-09T21:26:22.314Z,17.25
2022-09-09T21:28:26.967Z,17.22
2022-09-09T21:30:36.972Z,17.25
2022-09-09T21:32:44.358Z,17.34
2022-09-09T21:34:47.669Z,17.25
2022-09-09T21:36:50.988Z,17.25
2022-09-09T21:38:54.266Z,17.25
2022-09-09T21:40:57.715Z,17.21
2022-09-09T21:43:01.099Z,17.18
2022-09-09T21:45:05.451Z,17.27
2022-09-09T21:47:08.948Z,17.30
2022-09-09T21:49:14.066Z,17.03
2022-09-09T21:51:18.868Z,17.09
2022-09-09T21:53:22.395Z,17.25
2022-09-09T21:55:25.696Z,17.17
2022-09-09T21:57:29.130Z,17.26
2022-09-09T21:59:33.808Z,17.15
2022-09-09T22:01:37.233Z,17.21
2022-09-09T22:03:42.374Z,17.13
2022-09-09T22:05:49.708Z,17.11
2022-09-09T22:07:56.868Z,17.08
2022-09-09T22:10:00.839Z,17.10
2022-09-09T22:12:04.598Z,17.19
2022-09-09T22:14:07.919Z,17.24
2022-09-09T22:16:13.726Z,17.20
2022-09-09T22:20:22.816Z,17.25
2022-09-09T22:22:27.869Z,17.24
2022-09-09T22:24:31.122Z,17.25
2022-09-09T22:26:36.381Z,17.15
2022-09-09T22:28:39.784Z,17.27
2022-09-09T22:30:43.208Z,17.23
2022-09-09T22:32:46.750Z,17.21
2022-09-09T22:34:51.172Z,17.08
2022-09-09T22:36:55.381Z,17.20
2022-09-09T22:39:00.118Z,17.02
2022-09-09T22:41:04.367Z,17.06
2022-09-09T22:43:12.570Z,17.12
2022-09-09T22:45:16.803Z,17.03
2022-09-09T22:47:20.260Z,16.94
2022-09-09T22:49:24.454Z,16.84
2022-09-09T22:51:27.875Z,16.98
2022-09-09T22:53:32.628Z,17.02
2022-09-09T22:55:37.351Z,17.02
2022-09-09T22:57:42.080Z,16.86
2022-09-09T22:59:45.747Z,16.93
2022-09-09T23:01:49.430Z,16.87
2022-09-09T23:03:53.085Z,16.89
2022-09-09T23:05:57.500Z,16.91
2022-09-09T23:08:00.891Z,17.03
2022-09-09T23:10:06.110Z,16.93
2022-09-09T23:12:10.920Z,16.99
2022-09-09T23:14:14.765Z,16.92
2022-09-09T23:16:20.295Z,16.99
2022-09-09T23:18:26.808Z,16.98
2022-09-09T23:20:30.274Z,16.76
2022-09-09T23:22:35.283Z,16.87
2022-09-09T23:24:38.785Z,16.86
2022-09-09T23:26:43.392Z,16.88
2022-09-09T23:28:48.790Z,16.88
2022-09-09T23:30:52.124Z,16.82
2022-09-09T23:32:55.834Z,16.80
2022-09-09T23:34:59.292Z,16.89
2022-09-09T23:37:02.604Z,16.87
2022-09-09T23:39:07.654Z,16.85
2022-09-09T23:41:13.245Z,16.70
2022-09-09T23:43:16.641Z,16.78
2022-09-09T23:45:21.335Z,16.84
2022-09-09T23:47:27.577Z,16.78
2022-09-09T23:49:30.908Z,16.84
2022-09-09T23:51:34.807Z,16.84
2022-09-09T23:53:38.716Z,16.57
2022-09-09T23:55:42.642Z,16.69
2022-09-09T23:57:45.950Z,16.78
2022-09-09T23:59:49.255Z,16.87
